D80 weather

Olcott-Newfane Airport
Olcott, New York, United States

Public forecast

Using degrees Fahrenheit for public forecast. Weather courtesy of forecast.io.

Closest aviation weather report (METAR) to Olcott-Newfane Airport

Closest report is Niagara Falls International Airport, 16.0 nm (29.6 km) SW. Retrieved 2019/10/16 17:53 UTC (9 minutes ago):

KIAG 161753Z 19007KT 9SM -RA FEW026 FEW048 OVC070 11/09 A2955 RMK AO2 SLP011 P0004 60050 T01060089 10139 20100 58015

Closest aviation forecast (TAF) to Olcott-Newfane Airport

Closest forecast is Niagara Falls International Airport, 16.0 nm (29.6 km) SW. Retrieved 2019/10/16 18:24 UTC (0 seconds ago):

TAF KIAG 161723Z 1618/1718 21012KT 6SM -RA BR OVC040 FM162000 24016G22KT P6SM VCSH OVC025 FM170300 26013G20KT P6SM VCSH OVC035 FM170600 29014G22KT P6SM -SHRA OVC015 FM171200 30019G30KT 6SM -SHRA BR OVC015 FM171500 30019G30KT 4SM SHRA BR OVC012